createdAt,value
2022-10-19T00:00:01.161Z,9.05
2022-10-19T00:02:28.975Z,8.97
2022-10-19T00:04:56.850Z,8.95
2022-10-19T00:07:24.611Z,8.82
2022-10-19T00:09:52.446Z,8.72
2022-10-19T00:12:20.165Z,8.85
2022-10-19T00:14:47.933Z,8.93
2022-10-19T00:17:17.050Z,8.78
2022-10-19T00:19:44.767Z,8.71
2022-10-19T00:22:14.020Z,8.90
2022-10-19T00:24:42.572Z,8.83
2022-10-19T00:27:10.540Z,8.73
2022-10-19T00:29:38.905Z,8.56
2022-10-19T00:32:06.902Z,8.49
2022-10-19T00:34:36.024Z,8.52
2022-10-19T00:37:03.871Z,8.48
2022-10-19T00:39:31.669Z,8.47
2022-10-19T00:41:59.493Z,8.44
2022-10-19T00:44:59.881Z,8.42
2022-10-19T00:47:28.155Z,8.47
2022-10-19T00:49:59.612Z,8.47
2022-10-19T00:52:28.480Z,8.40
2022-10-19T00:54:57.617Z,8.30
2022-10-19T00:57:29.704Z,8.27
2022-10-19T00:59:59.774Z,8.18
2022-10-19T01:02:27.888Z,8.28
2022-10-19T01:04:57.269Z,8.18
2022-10-19T01:07:26.232Z,8.10
2022-10-19T01:09:54.467Z,8.10
2022-10-19T01:13:06.521Z,8.14
2022-10-19T01:15:42.811Z,8.08
2022-10-19T01:18:20.124Z,8.03
2022-10-19T01:21:09.705Z,8.00
2022-10-19T01:24:12.712Z,8.08
2022-10-19T01:27:10.822Z,8.13
2022-10-19T01:30:01.122Z,8.13
2022-10-19T01:32:39.286Z,8.23
2022-10-19T01:35:12.882Z,8.30
2022-10-19T01:37:47.254Z,8.33
2022-10-19T01:40:25.175Z,8.34
2022-10-19T01:43:01.000Z,8.24
2022-10-19T01:45:36.795Z,8.24
2022-10-19T01:48:08.297Z,8.18
2022-10-19T01:50:41.672Z,8.16
2022-10-19T01:53:12.427Z,8.11
2022-10-19T01:55:43.594Z,8.88
2022-10-19T01:58:15.394Z,9.47
2022-10-19T02:00:47.369Z,9.84
2022-10-19T02:03:16.641Z,9.73
2022-10-19T02:05:45.849Z,9.84
2022-10-19T02:08:15.989Z,9.82
2022-10-19T02:10:45.580Z,9.89
2022-10-19T02:13:16.028Z,10.36
2022-10-19T02:15:50.786Z,10.39
2022-10-19T02:18:23.516Z,10.08
2022-10-19T02:20:51.305Z,10.45
2022-10-19T02:23:23.204Z,10.50
2022-10-19T02:25:51.101Z,10.39
2022-10-19T02:28:19.372Z,10.71
2022-10-19T02:30:49.073Z,10.36
2022-10-19T02:33:17.380Z,10.32
2022-10-19T02:35:45.368Z,10.38
2022-10-19T02:38:18.109Z,10.45
2022-10-19T02:40:53.945Z,10.46
2022-10-19T02:43:24.476Z,10.15
2022-10-19T02:45:59.586Z,9.97
2022-10-19T02:48:30.872Z,10.15
2022-10-19T02:50:58.633Z,10.19
2022-10-19T02:53:26.395Z,10.29
2022-10-19T02:55:54.136Z,10.22
2022-10-19T02:58:22.184Z,10.35
2022-10-19T03:00:49.957Z,10.18
2022-10-19T03:03:19.108Z,9.89
2022-10-19T03:05:46.846Z,9.61
2022-10-19T03:08:14.575Z,9.60
2022-10-19T03:10:42.295Z,9.78
2022-10-19T03:13:10.010Z,9.75
2022-10-19T03:15:37.732Z,10.05
2022-10-19T03:18:05.527Z,10.03
2022-10-19T03:20:34.571Z,9.91
2022-10-19T03:23:02.312Z,9.74
2022-10-19T03:25:30.055Z,9.77
2022-10-19T03:27:57.732Z,9.77
2022-10-19T03:30:25.470Z,9.99
2022-10-19T03:32:53.202Z,9.79
2022-10-19T03:35:20.906Z,9.77
2022-10-19T03:37:49.943Z,10.05
2022-10-19T03:40:17.889Z,10.05
2022-10-19T03:42:45.586Z,9.85
2022-10-19T03:45:13.307Z,9.91
2022-10-19T03:47:41.069Z,9.67
2022-10-19T03:50:11.278Z,9.51
2022-10-19T03:52:38.975Z,9.38
2022-10-19T03:55:10.337Z,9.30
2022-10-19T03:57:38.301Z,9.19
2022-10-19T04:00:06.849Z,8.96
2022-10-19T04:02:39.598Z,9.16
2022-10-19T04:05:08.572Z,8.95
2022-10-19T04:07:36.475Z,8.92
2022-10-19T04:10:04.790Z,8.95
2022-10-19T04:12:34.366Z,8.73
2022-10-19T04:15:02.070Z,8.80
2022-10-19T04:17:29.815Z,8.78
2022-10-19T04:19:57.536Z,8.68
2022-10-19T04:22:25.277Z,8.68
2022-10-19T04:24:54.398Z,8.85
2022-10-19T04:27:22.089Z,8.92
2022-10-19T04:29:51.160Z,8.92
2022-10-19T04:32:18.872Z,8.93
2022-10-19T04:34:46.534Z,8.86
2022-10-19T04:37:14.281Z,8.78
2022-10-19T04:39:43.365Z,8.86
2022-10-19T04:42:11.319Z,8.89
2022-10-19T04:44:39.555Z,8.88
2022-10-19T04:47:08.629Z,9.00
2022-10-19T04:49:36.359Z,9.03
2022-10-19T04:52:04.324Z,9.00
2022-10-19T04:54:32.055Z,9.02
2022-10-19T04:56:59.783Z,9.03
2022-10-19T04:59:28.176Z,9.09
2022-10-19T05:01:55.896Z,9.16
2022-10-19T05:04:25.005Z,9.23
2022-10-19T05:06:52.772Z,9.22
2022-10-19T05:09:20.566Z,9.15
2022-10-19T05:11:50.263Z,9.20
2022-10-19T05:14:18.096Z,9.20
2022-10-19T05:16:45.887Z,9.34
2022-10-19T05:19:15.029Z,9.24
2022-10-19T05:21:44.198Z,9.10
2022-10-19T05:24:14.179Z,9.07
2022-10-19T05:26:42.185Z,9.05
2022-10-19T05:29:13.364Z,9.07
2022-10-19T05:31:41.297Z,8.97
2022-10-19T05:34:09.027Z,8.93
2022-10-19T05:36:38.542Z,8.86
2022-10-19T05:39:09.711Z,8.75
2022-10-19T05:41:37.594Z,8.69
2022-10-19T05:44:06.458Z,8.79
2022-10-19T05:46:35.302Z,8.75
2022-10-19T05:49:03.145Z,8.56
2022-10-19T05:51:30.903Z,8.59
2022-10-19T05:53:58.842Z,8.62
2022-10-19T05:56:29.949Z,8.78
2022-10-19T05:58:58.589Z,8.82
2022-10-19T06:01:27.273Z,8.83
2022-10-19T06:03:56.576Z,8.95
2022-10-19T06:06:24.715Z,8.96
2022-10-19T06:08:53.573Z,8.95
2022-10-19T06:11:23.753Z,8.92
2022-10-19T06:13:55.710Z,8.79
2022-10-19T06:16:24.859Z,9.02
2022-10-19T06:18:54.132Z,8.69
2022-10-19T06:21:25.422Z,8.72
2022-10-19T06:23:54.672Z,8.56
2022-10-19T06:26:22.833Z,8.58
2022-10-19T06:28:52.523Z,8.41
2022-10-19T06:31:20.260Z,8.34
2022-10-19T06:33:49.448Z,8.45
2022-10-19T06:36:19.186Z,8.45
2022-10-19T06:38:47.088Z,8.41
2022-10-19T06:41:15.120Z,8.34
2022-10-19T06:43:43.323Z,8.48
2022-10-19T06:46:15.438Z,8.55
2022-10-19T06:48:43.224Z,8.54
2022-10-19T06:51:11.832Z,8.48
2022-10-19T06:53:39.559Z,8.55
2022-10-19T06:56:08.211Z,8.73
2022-10-19T06:58:37.216Z,8.69
2022-10-19T07:01:07.463Z,8.90
2022-10-19T07:03:37.475Z,9.05
2022-10-19T07:06:07.040Z,9.19
2022-10-19T07:08:35.822Z,9.43
2022-10-19T07:11:06.233Z,9.52
2022-10-19T07:13:34.160Z,9.55
2022-10-19T07:16:05.528Z,9.55
2022-10-19T07:18:34.001Z,9.57
2022-10-19T07:21:05.728Z,9.47
2022-10-19T07:23:35.551Z,9.36
2022-10-19T07:26:06.215Z,9.52
2022-10-19T07:28:35.157Z,9.52
2022-10-19T07:31:07.228Z,9.41
2022-10-19T07:33:35.365Z,9.48
2022-10-19T07:36:06.781Z,9.44
2022-10-19T07:38:35.234Z,9.20
2022-10-19T07:41:05.034Z,9.19
2022-10-19T07:43:33.105Z,9.16
2022-10-19T07:46:02.834Z,9.22
2022-10-19T07:48:30.682Z,9.03
2022-10-19T07:50:58.771Z,9.10
2022-10-19T07:53:27.868Z,9.26
2022-10-19T07:55:55.772Z,9.20
2022-10-19T07:58:23.530Z,9.40
2022-10-19T08:00:51.525Z,9.48
2022-10-19T08:06:11.093Z,9.33
2022-10-19T08:08:40.992Z,8.86
2022-10-19T08:11:09.691Z,8.92
2022-10-19T08:13:37.919Z,8.90
2022-10-19T08:16:06.366Z,8.89
2022-10-19T08:18:34.171Z,9.07
2022-10-19T08:21:03.547Z,9.16
2022-10-19T08:23:31.158Z,9.20
2022-10-19T08:26:00.319Z,9.20
2022-10-19T08:28:28.093Z,9.43
2022-10-19T08:30:58.838Z,9.55
2022-10-19T08:33:27.527Z,9.57
2022-10-19T08:35:55.288Z,9.81
2022-10-19T08:38:23.032Z,9.67
2022-10-19T08:40:50.851Z,9.60
2022-10-19T08:43:26.816Z,9.61
2022-10-19T08:46:01.488Z,9.47
2022-10-19T08:48:33.009Z,9.27
2022-10-19T08:51:01.895Z,9.26
2022-10-19T08:53:39.893Z,9.29
2022-10-19T08:56:38.833Z,9.41
2022-10-19T08:59:15.477Z,9.37
2022-10-19T09:01:50.710Z,9.30
2022-10-19T09:04:23.080Z,9.43
2022-10-19T09:07:11.732Z,9.55
2022-10-19T09:12:18.677Z,9.61
2022-10-19T09:14:56.908Z,9.64
2022-10-19T09:17:25.272Z,9.73
2022-10-19T09:19:53.212Z,9.79
2022-10-19T09:22:25.058Z,9.92
2022-10-19T09:24:55.358Z,9.92
2022-10-19T09:27:26.019Z,10.03
2022-10-19T09:29:58.405Z,10.15
2022-10-19T09:32:33.012Z,10.06
2022-10-19T09:35:03.610Z,10.08
2022-10-19T09:37:33.590Z,9.98
2022-10-19T09:40:01.293Z,10.09
2022-10-19T09:42:33.358Z,10.12
2022-10-19T09:45:15.549Z,10.30
2022-10-19T09:47:48.901Z,10.76
2022-10-19T09:50:20.050Z,10.83
2022-10-19T09:52:49.181Z,11.03
2022-10-19T09:55:27.372Z,10.91
2022-10-19T09:58:04.158Z,11.45
2022-10-19T10:00:42.464Z,11.57
2022-10-19T10:03:23.945Z,11.51
2022-10-19T10:05:51.936Z,11.36
2022-10-19T10:08:22.550Z,11.34
2022-10-19T10:10:59.662Z,11.75
2022-10-19T10:13:28.627Z,11.54
2022-10-19T10:16:01.220Z,11.54
2022-10-19T10:18:30.257Z,11.52
2022-10-19T10:21:06.089Z,11.92
2022-10-19T10:23:36.479Z,12.24
2022-10-19T10:26:05.110Z,12.55
2022-10-19T10:28:33.060Z,12.69
2022-10-19T10:31:05.837Z,12.57
2022-10-19T10:33:45.455Z,12.81
2022-10-19T10:36:14.135Z,13.16
2022-10-19T10:38:46.311Z,13.60
2022-10-19T10:41:17.633Z,13.47
2022-10-19T10:43:53.383Z,14.28
2022-10-19T10:46:26.361Z,14.72
2022-10-19T10:48:57.909Z,14.80
2022-10-19T10:51:40.042Z,16.26
2022-10-19T10:54:15.851Z,16.52
2022-10-19T10:56:44.610Z,17.11
2022-10-19T10:59:19.714Z,16.94
2022-10-19T11:01:59.506Z,17.31
2022-10-19T11:04:32.584Z,18.29
2022-10-19T11:07:06.033Z,17.78
2022-10-19T11:09:37.611Z,18.51
2022-10-19T11:12:10.089Z,18.72
2022-10-19T11:14:44.829Z,18.57
2022-10-19T11:17:18.802Z,18.75
2022-10-19T11:19:46.651Z,18.43
2022-10-19T11:22:26.398Z,18.62
2022-10-19T11:25:11.145Z,19.39
2022-10-19T11:27:48.459Z,17.97
2022-10-19T11:30:19.477Z,18.43
2022-10-19T11:32:57.272Z,17.04
2022-10-19T11:35:46.280Z,18.16
2022-10-19T11:38:21.342Z,18.50
2022-10-19T11:41:16.990Z,18.50
2022-10-19T11:43:57.201Z,18.33
2022-10-19T11:46:26.601Z,18.01
2022-10-19T11:49:07.927Z,17.38
2022-10-19T11:51:41.620Z,16.34
2022-10-19T11:54:27.778Z,15.02
2022-10-19T11:57:05.544Z,14.73
2022-10-19T11:59:48.250Z,14.83
2022-10-19T12:02:35.248Z,14.26
2022-10-19T12:05:07.254Z,14.31
2022-10-19T12:07:49.572Z,13.93
2022-10-19T12:10:26.424Z,13.97
2022-10-19T12:12:58.727Z,13.60
2022-10-19T12:15:31.730Z,13.64
2022-10-19T12:18:05.166Z,13.76
2022-10-19T12:20:39.676Z,13.69
2022-10-19T12:23:25.755Z,13.86
2022-10-19T12:25:56.182Z,14.22
2022-10-19T12:28:29.918Z,14.38
2022-10-19T12:30:58.833Z,14.35
2022-10-19T12:33:31.417Z,14.48
2022-10-19T12:36:10.247Z,14.52
2022-10-19T12:38:51.008Z,14.73
2022-10-19T12:41:32.369Z,14.59
2022-10-19T12:44:15.814Z,14.65
2022-10-19T12:46:49.902Z,14.73
2022-10-19T12:49:44.132Z,15.13
2022-10-19T12:52:14.940Z,15.40
2022-10-19T12:54:44.485Z,15.58
2022-10-19T12:57:30.176Z,15.34
2022-10-19T13:00:07.863Z,15.10
2022-10-19T13:02:37.812Z,14.89
2022-10-19T13:05:07.016Z,14.62
2022-10-19T13:07:37.160Z,14.59
2022-10-19T13:10:09.658Z,14.75
2022-10-19T13:12:46.559Z,14.83
2022-10-19T13:15:50.881Z,15.04
2022-10-19T13:19:07.024Z,14.92
2022-10-19T13:22:14.438Z,14.73
2022-10-19T13:24:43.769Z,14.65
2022-10-19T13:27:39.524Z,14.75
2022-10-19T13:30:48.017Z,14.64
2022-10-19T13:33:52.327Z,14.58
2022-10-19T13:36:22.844Z,14.73
2022-10-19T13:39:15.021Z,14.76
2022-10-19T13:41:49.070Z,14.83
2022-10-19T13:44:25.051Z,14.62
2022-10-19T13:47:24.083Z,14.58
2022-10-19T13:50:23.289Z,14.66
2022-10-19T13:53:12.488Z,14.69
2022-10-19T13:55:56.237Z,14.58
2022-10-19T13:58:49.667Z,14.59
2022-10-19T14:01:32.457Z,14.56
2022-10-19T14:04:18.601Z,14.59
2022-10-19T14:06:51.767Z,14.83
2022-10-19T14:09:55.002Z,14.95
2022-10-19T14:12:26.163Z,14.95
2022-10-19T14:14:54.304Z,15.07
2022-10-19T14:17:24.537Z,15.24
2022-10-19T14:19:54.472Z,15.26
2022-10-19T14:22:27.346Z,15.36
2022-10-19T14:25:02.623Z,15.51
2022-10-19T14:27:32.399Z,15.48
2022-10-19T14:30:00.565Z,15.47
2022-10-19T14:32:30.412Z,15.51
2022-10-19T14:35:02.112Z,15.40
2022-10-19T14:37:29.966Z,15.37
2022-10-19T14:39:59.606Z,15.38
2022-10-19T14:42:39.991Z,15.34
2022-10-19T14:45:13.666Z,15.24
2022-10-19T14:47:53.145Z,15.19
2022-10-19T14:50:24.542Z,15.23
2022-10-19T14:52:57.205Z,15.14
2022-10-19T14:55:27.308Z,15.11
2022-10-19T14:57:56.541Z,15.06
2022-10-19T15:03:01.762Z,15.03
2022-10-19T15:05:32.332Z,14.97
2022-10-19T15:08:09.420Z,14.92
2022-10-19T15:10:43.819Z,14.77
2022-10-19T15:13:25.374Z,14.77
2022-10-19T15:15:54.404Z,14.71
2022-10-19T15:18:44.060Z,14.68
2022-10-19T15:21:15.102Z,14.68
2022-10-19T15:23:44.809Z,14.64
2022-10-19T15:26:19.381Z,14.61
2022-10-19T15:28:49.646Z,14.61
2022-10-19T15:31:20.091Z,14.61
2022-10-19T15:33:52.903Z,14.58
2022-10-19T15:36:22.671Z,14.55
2022-10-19T15:39:11.681Z,14.46
2022-10-19T15:41:48.940Z,14.44
2022-10-19T15:44:34.019Z,14.34
2022-10-19T15:47:21.411Z,14.26
2022-10-19T15:49:55.802Z,14.21
2022-10-19T15:52:24.845Z,14.18
2022-10-19T15:54:54.162Z,14.15
2022-10-19T15:57:32.632Z,14.05
2022-10-19T16:00:07.785Z,14.03
2022-10-19T16:02:35.828Z,13.94
2022-10-19T16:05:03.627Z,13.88
2022-10-19T16:07:34.417Z,13.84
2022-10-19T16:10:02.380Z,13.84
2022-10-19T16:12:30.150Z,13.80
2022-10-19T16:14:58.002Z,13.69
2022-10-19T16:17:27.868Z,13.59
2022-10-19T16:19:55.714Z,13.57
2022-10-19T16:22:23.633Z,13.54
2022-10-19T16:24:51.468Z,13.47
2022-10-19T16:27:19.312Z,13.46
2022-10-19T16:29:47.186Z,13.39
2022-10-19T16:32:15.132Z,13.38
2022-10-19T16:34:44.354Z,13.38
2022-10-19T16:37:12.212Z,13.32
2022-10-19T16:39:40.030Z,13.26
2022-10-19T16:42:08.081Z,13.23
2022-10-19T16:44:35.887Z,13.33
2022-10-19T16:47:03.975Z,13.29
2022-10-19T16:49:31.945Z,13.25
2022-10-19T16:52:01.673Z,13.18
2022-10-19T16:54:30.641Z,13.19
2022-10-19T16:56:58.402Z,13.23
2022-10-19T16:59:26.267Z,13.25
2022-10-19T17:01:54.269Z,13.20
2022-10-19T17:04:22.219Z,13.19
2022-10-19T17:06:50.126Z,13.11
2022-10-19T17:12:07.912Z,13.11
2022-10-19T17:14:36.531Z,13.11
2022-10-19T17:17:04.574Z,13.13
2022-10-19T17:19:32.666Z,13.11
2022-10-19T17:22:01.823Z,13.16
2022-10-19T17:24:31.115Z,13.13
2022-10-19T17:27:02.317Z,13.11
2022-10-19T17:29:30.503Z,13.08
2022-10-19T17:31:58.724Z,13.08
2022-10-19T17:34:27.263Z,13.02
2022-10-19T17:36:55.260Z,12.96
2022-10-19T17:39:28.901Z,12.94
2022-10-19T17:42:02.005Z,12.96
2022-10-19T17:44:31.334Z,12.94
2022-10-19T17:46:59.333Z,12.95
2022-10-19T17:49:27.186Z,12.96
2022-10-19T17:51:54.968Z,12.95
2022-10-19T17:54:22.868Z,12.91
2022-10-19T17:56:50.697Z,12.85
2022-10-19T17:59:30.285Z,12.81
2022-10-19T18:02:02.927Z,12.82
2022-10-19T18:04:30.826Z,12.82
2022-10-19T18:06:58.680Z,12.74
2022-10-19T18:09:26.430Z,12.71
2022-10-19T18:11:54.326Z,12.65
2022-10-19T18:14:23.496Z,12.63
2022-10-19T18:16:52.133Z,12.61
2022-10-19T18:19:19.947Z,12.58
2022-10-19T18:21:49.136Z,12.55
2022-10-19T18:24:19.939Z,12.51
2022-10-19T18:26:48.400Z,12.50
2022-10-19T18:29:18.243Z,12.53
2022-10-19T18:31:51.565Z,12.45
2022-10-19T18:34:20.854Z,12.48
2022-10-19T18:36:48.972Z,12.45
2022-10-19T18:39:17.393Z,12.37
2022-10-19T18:41:45.345Z,12.36
2022-10-19T18:44:14.398Z,12.27
2022-10-19T18:46:42.576Z,12.24
2022-10-19T18:49:12.688Z,12.23
2022-10-19T18:51:40.911Z,12.13
2022-10-19T18:54:09.273Z,12.16
2022-10-19T18:56:37.415Z,12.20
2022-10-19T18:59:05.410Z,12.09
2022-10-19T19:01:33.282Z,12.12
2022-10-19T19:04:07.506Z,12.06
2022-10-19T19:06:38.241Z,12.02
2022-10-19T19:09:08.816Z,11.99
2022-10-19T19:11:38.319Z,11.90
2022-10-19T19:14:08.654Z,11.90
2022-10-19T19:16:38.806Z,11.89
2022-10-19T19:19:07.522Z,11.85
2022-10-19T19:21:38.311Z,11.82
2022-10-19T19:24:08.176Z,11.81
2022-10-19T19:26:39.838Z,11.73
2022-10-19T19:29:08.161Z,11.75
2022-10-19T19:31:36.344Z,11.78
2022-10-19T19:34:06.265Z,11.73
2022-10-19T19:36:34.235Z,11.71
2022-10-19T19:39:03.738Z,11.71
2022-10-19T19:41:34.066Z,11.71
2022-10-19T19:44:02.028Z,11.65
2022-10-19T19:46:29.928Z,11.61
2022-10-19T19:49:01.084Z,11.59
2022-10-19T19:51:30.541Z,11.58
2022-10-19T19:53:58.359Z,11.54
2022-10-19T19:56:28.789Z,11.57
2022-10-19T19:58:57.636Z,11.55
2022-10-19T20:01:26.090Z,11.49
2022-10-19T20:03:54.045Z,11.43
2022-10-19T20:06:25.061Z,11.49
2022-10-19T20:08:54.502Z,11.46
2022-10-19T20:11:23.432Z,11.43
2022-10-19T20:13:52.825Z,11.42
2022-10-19T20:16:25.177Z,11.36
2022-10-19T20:18:59.681Z,11.43
2022-10-19T20:21:27.771Z,11.39
2022-10-19T20:23:55.757Z,11.38
2022-10-19T20:26:24.970Z,11.41
2022-10-19T20:28:54.651Z,11.42
2022-10-19T20:31:22.855Z,11.39
2022-10-19T20:33:50.900Z,11.39
2022-10-19T20:36:21.315Z,11.42
2022-10-19T20:38:50.638Z,11.38
2022-10-19T20:41:19.288Z,11.36
2022-10-19T20:43:47.306Z,11.35
2022-10-19T20:46:18.716Z,11.32
2022-10-19T20:48:46.898Z,11.30
2022-10-19T20:51:17.303Z,11.30
2022-10-19T20:53:47.152Z,11.28
2022-10-19T20:56:16.546Z,11.24
2022-10-19T20:58:45.275Z,11.20
2022-10-19T21:01:15.034Z,11.20
2022-10-19T21:03:48.676Z,11.17
2022-10-19T21:06:17.175Z,11.14
2022-10-19T21:08:45.164Z,11.18
2022-10-19T21:11:14.739Z,11.11
2022-10-19T21:13:42.946Z,11.11
2022-10-19T21:16:12.322Z,11.08
2022-10-19T21:18:40.291Z,11.15
2022-10-19T21:21:14.900Z,11.18
2022-10-19T21:23:43.562Z,11.22
2022-10-19T21:26:11.354Z,11.14
2022-10-19T21:28:39.915Z,11.20
2022-10-19T21:31:10.275Z,11.18
2022-10-19T21:33:38.118Z,11.17
2022-10-19T21:36:08.976Z,11.11
2022-10-19T21:38:38.333Z,11.14
2022-10-19T21:41:07.054Z,11.10
2022-10-19T21:43:35.739Z,11.14
2022-10-19T21:46:04.579Z,11.07
2022-10-19T21:48:33.855Z,11.07
2022-10-19T21:51:13.698Z,11.04
2022-10-19T21:53:42.834Z,10.99
2022-10-19T21:56:10.835Z,10.97
2022-10-19T21:58:38.588Z,10.99
2022-10-19T22:01:06.951Z,10.96
2022-10-19T22:03:35.607Z,10.94
2022-10-19T22:06:03.444Z,10.94
2022-10-19T22:08:31.342Z,10.99
2022-10-19T22:11:05.451Z,10.96
2022-10-19T22:13:33.422Z,10.96
2022-10-19T22:16:05.625Z,10.99
2022-10-19T22:18:33.564Z,11.04
2022-10-19T22:21:04.565Z,10.99
2022-10-19T22:23:32.295Z,11.00
2022-10-19T22:26:01.562Z,10.97
2022-10-19T22:28:29.165Z,10.97
2022-10-19T22:30:58.208Z,10.96
2022-10-19T22:33:26.488Z,10.85
2022-10-19T22:35:55.662Z,10.84
2022-10-19T22:38:23.439Z,10.84
2022-10-19T22:40:51.216Z,10.84
2022-10-19T22:43:20.395Z,10.85
2022-10-19T22:45:48.687Z,10.84
2022-10-19T22:48:16.874Z,10.87
2022-10-19T22:50:45.097Z,10.99
2022-10-19T22:53:13.443Z,11.04
2022-10-19T22:55:41.246Z,11.08
2022-10-19T23:00:43.871Z,11.14
2022-10-19T23:03:11.638Z,11.17
2022-10-19T23:05:39.436Z,11.15
2022-10-19T23:08:07.177Z,11.07
2022-10-19T23:10:34.935Z,11.06
2022-10-19T23:13:02.661Z,11.04
2022-10-19T23:15:30.416Z,11.08
2022-10-19T23:18:00.403Z,10.99
2022-10-19T23:20:28.152Z,11.03
2022-10-19T23:22:55.895Z,10.96
2022-10-19T23:25:23.647Z,10.99
2022-10-19T23:27:51.467Z,10.90
2022-10-19T23:30:19.225Z,11.03
2022-10-19T23:32:46.950Z,11.00
2022-10-19T23:35:16.277Z,10.97
2022-10-19T23:37:43.870Z,11.03
2022-10-19T23:40:12.521Z,10.97
2022-10-19T23:42:40.207Z,10.94
2022-10-19T23:45:08.712Z,10.87
2022-10-19T23:47:36.926Z,10.91
2022-10-19T23:50:05.200Z,10.94
2022-10-19T23:52:34.361Z,10.94
2022-10-19T23:55:02.177Z,10.85
2022-10-19T23:57:29.869Z,10.85
2022-10-19T23:59:57.620Z,10.76
